首页
METAR-TAF:

METAR-TAF

机场 :

匹兹堡 / West Mifflin, 宾夕法尼亚州, 美国

纬度: 40-21-17N, 经度: 079-55-18W, 海拔: 382米

当前天气观测

该预报发布于28分钟前的15:53 UTC
风速4节,风向东转东南
温度 3°C
湿度 75%
气压 1024 hPa
能見度: 12.9公里
天空无云

METAR: KAGC 171553Z 12004KT 8SM CLR 03/M01 A3025 RMK AO2 SLP260 T00281006

时间: 11:21 (16:21 UTC)

预报

该预报发布于2小时和16分钟前的14:05 UTC
预报有效从17日的 14点(UTC)到 18日的 12点(UTC)
风速节,风向
能見度: 8.0公里
少量云层高于25000英尺
轻雾
短暂存在
从 17日的 14点(UTC)到 17日的 15点(UTC)
能見度: 1.6公里
轻雾
从 17日的 1600点(UTC)
风速6节,风向东转东南
能見度: 10公里
少量云层高于10000英尺
多云层高于25000英尺
从 18日的 0200点(UTC)
风速10节,风向东转东南
能見度: 10公里
阴天层高于10000英尺
从 18日的 0700点(UTC)
风速10节,风向南转南东
能見度: 10公里
阴天层高于6000英尺
小阵雨
从 18日的 1100点(UTC)
风速11节,风向
能見度: 10公里
阴天层高于2500英尺
小阵雨

TAF: KAGC 171405Z 1714/1812 00000KT 5SM BR FEW250 TEMPO 1714/1715 1SM BR FM171600 11006KT P6SM FEW100 BKN250 FM180200 12010KT P6SM OVC100 FM180700 16010KT P6SM -SHRA OVC060 WS020/18045KT FM181100 18011KT P6SM -SHRA OVC025 WS020/21050KT

超过4000个机场的气象观测和天气预报(METAR&TAF报告)。

可查询的气象台以黄色和红色小点在地图上表示。

将鼠标移到小点上方,可查看气象台名称。

然后点击查看天气观测和预报。

如需切换地图:点击带黑十字的绿色按钮放大地图;点击带横线的绿色按钮缩小地图;或者点击绿色箭头查看邻近地区的地图。


METAR-TAF: